Portada
METAR-TAF:

METAR-TAF

Aeroports :

Aeroport Internacional de Tunis

Tunis, Tunísia

latitud: 36-50N, longitud: 010-14E, altitud: 3 m

Observació

L'informe es va fer fa 27 minuts, a les 07:00 UTC
Vent 9 kt del Est/Sud-Est, variant entre Est/Nord-Est i Sud/Sud-Est
Temperatura 27°C
Humitat 84%
Pressió 1017 hPa
Visibilitat 10 km o més
Núvols disperses a una alçada de 2600 ft

METAR: DTTA 210700Z 12009KT 060V160 9999 SCT026 27/24 Q1017

Hora: 08:27 (07:27 UTC)

Pronòstic

L'informe es va fer fa 2 hores i 27 minuts, a les 05:00 UTC
Pronòstic vàlid del 21 a les 06 UTC al 22 a les 06 UTC
Vent 6 kt del Est/Sud-Est
Visibilitat 10 km o més
Núvols disperses a una alçada de 2600 ft
Evolucionant progressivament
l' 21 a les 08 UTC al 21 a les 10 UTC
Vent 15 kt del Sud/Sud-Est

TAF: DTTA 210500Z 2106/2206 12006KT 9999 SCT026 BECMG 2108/2110 15015KT

Observacions i pronòstics meteorològics de més de 4000 aeroports (METAR i TAF).

Les estacions disponibles són els punts grocs i vermells al mapa.

Posi el ratolí al punt desitjat per veure el nom de l'estació.

Feu clic per veure les observacions i els pronòstics meteorològics.

Per canviar el mapa: feu clic els botons verds amb una creu de color negre per apropar; al botó verd amb un guió per allunyar la imatge; o en les fletxes verdes per a mapes adjacents.


METAR-TAF: